Time;durP1;ratioP1;P1;durP2;ratioP2;P2;SDS_P1;SDS_P2;PMS_P1;PMS_P2;Temp;Humidity;BMP_temperature;BMP_pressure;BME280_temperature;BME280_humidity;BME280_pressure;Samples;Min_cycle;Max_cycle;Signal;HPM_P1;HPM_P2
2022/11/23 00:01:38;;;;;;;5.33;2.97;;;;;;;;;;5002258;28;20213;-90
2022/11/23 00:04:42;;;;;;;5.03;2.70;;;;;;;;;;5002992;28;20201;-90
2022/11/23 00:07:46;;;;;;;8.07;3.10;;;;;;;;;;4991608;28;20177;-90
2022/11/23 00:10:50;;;;;;;3.40;2.40;;;;;;;;;;4991181;28;20216;-90
2022/11/23 00:13:55;;;;;;;2.97;2.47;;;;;;;;;;5002521;28;20174;-90
2022/11/23 00:17:00;;;;;;;5.10;2.53;;;;;;;;;;4990996;28;20182;-90
2022/11/23 00:20:05;;;;;;;4.17;2.83;;;;;;;;;;4991302;28;20221;-90
2022/11/23 00:23:09;;;;;;;4.20;2.80;;;;;;;;;;4991181;28;20181;-90
2022/11/23 00:26:15;;;;;;;5.47;2.47;;;;;;;;;;4990579;28;20221;-90
2022/11/23 00:29:19;;;;;;;5.53;2.90;;;;;;;;;;5002491;28;20201;-90
2022/11/23 00:32:23;;;;;;;5.97;2.70;;;;;;;;;;4991134;28;20178;-90
2022/11/23 00:35:27;;;;;;;3.67;2.90;;;;;;;;;;4991165;28;20178;-90
2022/11/23 00:38:32;;;;;;;3.90;2.80;;;;;;;;;;4990884;28;20186;-90
2022/11/23 00:41:36;;;;;;;4.33;2.87;;;;;;;;;;5001918;28;20213;-90
2022/11/23 00:44:40;;;;;;;6.37;2.57;;;;;;;;;;4993707;28;20216;-90
2022/11/23 00:47:44;;;;;;;9.43;2.70;;;;;;;;;;4998111;28;20200;-90
2022/11/23 00:50:48;;;;;;;7.17;2.10;;;;;;;;;;4996810;28;20687;-90
2022/11/23 00:53:53;;;;;;;7.17;2.60;;;;;;;;;;5010356;28;20177;-90
2022/11/23 00:56:57;;;;;;;3.07;2.20;;;;;;;;;;5010841;28;20169;-90
2022/11/23 01:00:01;;;;;;;4.07;2.53;;;;;;;;;;5010757;28;20212;-90
2022/11/23 01:03:07;;;;;;;6.03;2.40;;;;;;;;;;5000043;28;20545;-90
2022/11/23 01:06:14;;;;;;;4.80;2.77;;;;;;;;;;4999817;28;20252;-90
2022/11/23 01:09:19;;;;;;;6.47;2.47;;;;;;;;;;5011506;28;20185;-90
2022/11/23 01:12:28;;;;;;;3.37;2.30;;;;;;;;;;5011542;28;20181;-90
2022/11/23 01:15:32;;;;;;;4.57;2.10;;;;;;;;;;4999748;28;20181;-90
2022/11/23 01:18:36;;;;;;;6.73;2.50;;;;;;;;;;5011389;28;20185;-91
2022/11/23 01:21:40;;;;;;;6.50;2.20;;;;;;;;;;4999919;28;20561;-89
2022/11/23 01:24:44;;;;;;;5.07;2.10;;;;;;;;;;5021910;28;20220;-90
2022/11/23 01:27:49;;;;;;;5.50;2.30;;;;;;;;;;4987815;28;20560;-90
2022/11/23 01:30:53;;;;;;;3.17;2.00;;;;;;;;;;4995094;28;20236;-89
2022/11/23 01:34:00;;;;;;;3.87;1.97;;;;;;;;;;4994887;28;20181;-90
2022/11/23 01:37:04;;;;;;;3.70;1.97;;;;;;;;;;4984012;28;20186;-90
2022/11/23 01:40:09;;;;;;;3.97;2.00;;;;;;;;;;4983258;28;20221;-90
2022/11/23 01:43:16;;;;;;;5.17;2.40;;;;;;;;;;4983505;28;20190;-89
2022/11/23 01:46:21;;;;;;;2.90;2.03;;;;;;;;;;4982855;28;20214;-89
2022/11/23 01:49:28;;;;;;;3.40;2.13;;;;;;;;;;4993742;28;20186;-90
2022/11/23 01:52:32;;;;;;;4.20;2.30;;;;;;;;;;5008692;28;20657;-90
2022/11/23 01:55:37;;;;;;;4.93;2.00;;;;;;;;;;4982467;28;20634;-89
2022/11/23 01:58:45;;;;;;;3.43;2.23;;;;;;;;;;4982074;28;20182;-89
2022/11/23 02:01:50;;;;;;;5.30;2.20;;;;;;;;;;4982559;28;20178;-90
2022/11/23 02:04:57;;;;;;;3.70;2.20;;;;;;;;;;4982108;28;20217;-90
2022/11/23 02:08:03;;;;;;;4.07;2.33;;;;;;;;;;4992973;28;20186;-89
2022/11/23 02:11:09;;;;;;;5.80;2.20;;;;;;;;;;4983013;28;20217;-92
2022/11/23 02:14:14;;;;;;;3.33;1.50;;;;;;;;;;4998437;28;20204;-92
2022/11/23 02:17:18;;;;;;;5.23;2.30;;;;;;;;;;5002351;28;20177;-92
2022/11/23 02:20:23;;;;;;;5.87;2.17;;;;;;;;;;5002255;28;20216;-92
2022/11/23 02:23:31;;;;;;;3.20;2.13;;;;;;;;;;5002770;28;20177;-92
2022/11/23 02:26:35;;;;;;;5.47;2.60;;;;;;;;;;5013405;28;20680;-92
2022/11/23 02:29:41;;;;;;;2.80;2.00;;;;;;;;;;5002176;28;20258;-92
2022/11/23 02:32:45;;;;;;;3.50;2.20;;;;;;;;;;5002292;28;20204;-92
2022/11/23 02:35:52;;;;;;;4.47;2.33;;;;;;;;;;5002099;28;20173;-92
2022/11/23 02:39:00;;;;;;;3.80;2.10;;;;;;;;;;5012747;28;20177;-92
2022/11/23 02:42:05;;;;;;;2.87;1.80;;;;;;;;;;5001913;28;20173;-92
2022/11/23 02:45:28;;;;;;;4.27;2.47;;;;;;;;;;5002102;28;20224;-92
2022/11/23 02:48:32;;;;;;;3.77;2.13;;;;;;;;;;5001781;28;20184;-92
2022/11/23 02:51:40;;;;;;;6.47;2.50;;;;;;;;;;5002434;28;20212;-92
2022/11/23 02:54:44;;;;;;;8.00;2.67;;;;;;;;;;5002278;28;20180;-92
2022/11/23 02:57:49;;;;;;;3.67;2.23;;;;;;;;;;5002489;28;20181;-92
2022/11/23 03:00:54;;;;;;;4.63;2.20;;;;;;;;;;5013218;28;20216;-92
2022/11/23 03:03:59;;;;;;;4.83;2.27;;;;;;;;;;5003148;28;20200;-92
2022/11/23 03:07:06;;;;;;;4.87;2.23;;;;;;;;;;5002604;28;20224;-92
2022/11/23 03:10:11;;;;;;;3.13;2.10;;;;;;;;;;5002444;28;20216;-92
2022/11/23 03:13:15;;;;;;;5.10;2.10;;;;;;;;;;5002398;28;20177;-92
2022/11/23 03:16:19;;;;;;;3.00;2.07;;;;;;;;;;5002168;28;20192;-92
2022/11/23 03:19:25;;;;;;;4.87;2.10;;;;;;;;;;5002403;28;20196;-92
2022/11/23 03:22:30;;;;;;;6.47;1.80;;;;;;;;;;5013022;28;20173;-92
2022/11/23 03:25:34;;;;;;;6.07;2.30;;;;;;;;;;5001327;28;20204;-92
2022/11/23 03:28:41;;;;;;;5.23;2.63;;;;;;;;;;5001623;28;20640;-92
2022/11/23 03:31:44;;;;;;;2.87;1.90;;;;;;;;;;5012294;28;20216;-92
2022/11/23 03:34:51;;;;;;;3.97;2.37;;;;;;;;;;5001888;28;20517;-92
2022/11/23 03:37:57;;;;;;;2.60;1.87;;;;;;;;;;5001278;28;20173;-92
2022/11/23 03:41:02;;;;;;;4.17;2.13;;;;;;;;;;5001136;28;20212;-92
2022/11/23 03:44:17;;;;;;;3.20;1.63;;;;;;;;;;5002488;28;20181;-92
2022/11/23 03:47:21;;;;;;;3.10;1.83;;;;;;;;;;5000775;28;20224;-92
2022/11/23 03:50:25;;;;;;;3.33;1.73;;;;;;;;;;5011558;28;20212;-92
2022/11/23 03:53:30;;;;;;;6.73;2.00;;;;;;;;;;5013349;28;20192;-92
2022/11/23 03:56:34;;;;;;;3.60;2.00;;;;;;;;;;5000989;28;20185;-92
2022/11/23 03:59:38;;;;;;;3.07;1.80;;;;;;;;;;5001303;28;20185;-92
2022/11/23 04:02:45;;;;;;;7.10;2.27;;;;;;;;;;5001136;28;20544;-92
2022/11/23 04:06:09;;;;;;;3.50;1.87;;;;;;;;;;5015437;28;20233;-92
2022/11/23 04:09:32;;;;;;;3.80;2.10;;;;;;;;;;5022955;28;20185;-92
2022/11/23 04:12:42;;;;;;;4.37;2.23;;;;;;;;;;5012432;28;20185;-92
2022/11/23 04:15:46;;;;;;;5.00;2.00;;;;;;;;;;5001233;28;20177;-92
2022/11/23 04:18:50;;;;;;;3.43;1.93;;;;;;;;;;5000252;28;20196;-92
2022/11/23 04:21:55;;;;;;;3.20;2.00;;;;;;;;;;4999833;28;20193;-92
2022/11/23 04:25:00;;;;;;;6.33;2.30;;;;;;;;;;5000334;28;20640;-92
2022/11/23 04:28:04;;;;;;;5.93;2.00;;;;;;;;;;5000266;28;20533;-92
2022/11/23 04:31:09;;;;;;;7.73;1.90;;;;;;;;;;5000865;28;20229;-92
2022/11/23 04:34:24;;;;;;;4.83;2.30;;;;;;;;;;4995666;28;20177;-92
2022/11/23 04:37:31;;;;;;;4.90;2.20;;;;;;;;;;4985260;28;20941;-92
2022/11/23 04:40:36;;;;;;;3.40;1.87;;;;;;;;;;4984928;28;20221;-92
2022/11/23 04:43:41;;;;;;;5.03;2.30;;;;;;;;;;4984325;28;20185;-92
2022/11/23 04:46:46;;;;;;;6.03;2.33;;;;;;;;;;4995406;28;20596;-92
2022/11/23 04:49:51;;;;;;;4.27;2.10;;;;;;;;;;4985259;28;20635;-92
2022/11/23 04:52:56;;;;;;;8.50;2.33;;;;;;;;;;4990296;28;20178;-92
2022/11/23 04:56:08;;;;;;;4.70;2.07;;;;;;;;;;4989958;28;20541;-92
2022/11/23 04:59:16;;;;;;;4.47;1.77;;;;;;;;;;5001465;28;20553;-92
2022/11/23 05:02:20;;;;;;;5.87;2.63;;;;;;;;;;4992829;28;20205;-92
2022/11/23 05:05:27;;;;;;;8.30;2.37;;;;;;;;;;4993303;28;20185;-92
2022/11/23 05:08:32;;;;;;;8.17;2.10;;;;;;;;;;4993146;28;20549;-92
2022/11/23 05:12:00;;;;;;;5.03;2.37;;;;;;;;;;5003507;28;20545;-92
2022/11/23 05:15:06;;;;;;;6.20;2.50;;;;;;;;;;4991400;28;20545;-92
2022/11/23 05:18:15;;;;;;;6.17;2.57;;;;;;;;;;4990964;28;20185;-92
2022/11/23 05:21:20;;;;;;;4.57;2.50;;;;;;;;;;4990481;28;20217;-92
2022/11/23 05:24:25;;;;;;;3.90;2.30;;;;;;;;;;4990277;28;20182;-92
2022/11/23 05:27:56;;;;;;;6.07;2.27;;;;;;;;;;5011603;28;20209;-92
2022/11/23 05:33:02;;;;;;;4.43;2.30;;;;;;;;;;5135462;27;20816;-78
2022/11/23 05:36:08;;;;;;;7.23;2.03;;;;;;;;;;5099070;28;20547;-78
2022/11/23 05:39:15;;;;;;;7.30;2.83;;;;;;;;;;5113353;28;20556;-78
2022/11/23 05:42:21;;;;;;;3.13;2.17;;;;;;;;;;5113392;28;20213;-78
2022/11/23 05:45:26;;;;;;;6.70;2.23;;;;;;;;;;5101674;28;20174;-79
2022/11/23 05:48:32;;;;;;;4.27;2.20;;;;;;;;;;5122076;28;20193;-79
2022/11/23 05:51:38;;;;;;;3.27;2.20;;;;;;;;;;5111004;28;20221;-79
2022/11/23 05:54:42;;;;;;;3.13;2.37;;;;;;;;;;5122323;28;20189;-81
2022/11/23 05:57:49;;;;;;;5.50;2.43;;;;;;;;;;5110575;28;20198;-80
2022/11/23 06:01:00;;;;;;;3.80;2.10;;;;;;;;;;5122301;28;20630;-79
2022/11/23 06:04:14;;;;;;;5.67;2.60;;;;;;;;;;5101741;28;20540;-79
2022/11/23 06:07:24;;;;;;;2.83;2.40;;;;;;;;;;5108997;28;20197;-80
2022/11/23 06:10:43;;;;;;;4.50;2.23;;;;;;;;;;5111572;28;20178;-80
2022/11/23 06:13:48;;;;;;;3.30;2.20;;;;;;;;;;5091042;28;20190;-79
2022/11/23 06:16:54;;;;;;;4.90;2.67;;;;;;;;;;5091802;28;20573;-80
2022/11/23 06:20:18;;;;;;;6.93;2.60;;;;;;;;;;5092577;28;20179;-79
2022/11/23 06:23:31;;;;;;;4.27;2.60;;;;;;;;;;5087357;28;20179;-80
2022/11/23 06:26:36;;;;;;;6.97;2.93;;;;;;;;;;5087753;28;20197;-79
2022/11/23 06:29:42;;;;;;;5.40;2.90;;;;;;;;;;5096050;28;20179;-79
2022/11/23 06:32:46;;;;;;;4.83;2.50;;;;;;;;;;5106072;28;20225;-79
2022/11/23 06:35:55;;;;;;;7.33;3.40;;;;;;;;;;5110365;28;20217;-79
2022/11/23 06:39:02;;;;;;;6.20;2.87;;;;;;;;;;5105638;28;20210;-79
2022/11/23 06:42:06;;;;;;;4.60;2.93;;;;;;;;;;5087365;28;20210;-79
2022/11/23 06:45:11;;;;;;;12.27;7.13;;;;;;;;;;5084093;28;20178;-79
2022/11/23 06:48:15;;;;;;;10.87;7.13;;;;;;;;;;5084712;28;20171;-79
2022/11/23 06:51:23;;;;;;;11.13;7.13;;;;;;;;;;5085344;28;20218;-79
2022/11/23 06:54:29;;;;;;;12.10;6.00;;;;;;;;;;5103906;28;20194;-80
2022/11/23 06:57:34;;;;;;;9.37;5.60;;;;;;;;;;5068123;28;20187;-78
2022/11/23 07:00:40;;;;;;;11.13;5.87;;;;;;;;;;5081011;28;20199;-78
2022/11/23 07:03:46;;;;;;;6.40;4.37;;;;;;;;;;5077606;28;20174;-78
2022/11/23 07:07:16;;;;;;;7.17;3.30;;;;;;;;;;5088273;28;20685;-78
2022/11/23 07:10:27;;;;;;;5.23;3.63;;;;;;;;;;5077233;28;20242;-78
2022/11/23 07:13:35;;;;;;;7.87;3.87;;;;;;;;;;5078718;28;20179;-78
2022/11/23 07:16:40;;;;;;;8.33;5.13;;;;;;;;;;5051961;28;20286;-77
2022/11/23 07:19:45;;;;;;;5.80;4.77;;;;;;;;;;5074129;28;20186;-78
2022/11/23 07:23:07;;;;;;;8.13;4.73;;;;;;;;;;5082334;28;20203;-79
2022/11/23 07:26:12;;;;;;;4.07;3.20;;;;;;;;;;5071086;28;20195;-79
2022/11/23 07:29:16;;;;;;;7.23;4.17;;;;;;;;;;5094681;28;20179;-79
2022/11/23 07:32:20;;;;;;;9.63;4.47;;;;;;;;;;5094527;28;20693;-79
2022/11/23 07:35:25;;;;;;;6.53;3.60;;;;;;;;;;5070560;28;20191;-79
2022/11/23 07:38:30;;;;;;;4.63;3.63;;;;;;;;;;5077050;28;20179;-80
2022/11/23 07:41:35;;;;;;;5.67;3.43;;;;;;;;;;5088334;28;20222;-80
2022/11/23 07:44:45;;;;;;;14.80;7.83;;;;;;;;;;5083954;28;20179;-80
2022/11/23 07:47:57;;;;;;;15.43;10.17;;;;;;;;;;5062326;28;20634;-81
2022/11/23 07:51:01;;;;;;;12.90;9.03;;;;;;;;;;5073952;28;20236;-80
2022/11/23 07:54:05;;;;;;;12.33;6.97;;;;;;;;;;5061260;28;20191;-81
2022/11/23 07:57:10;;;;;;;9.80;5.40;;;;;;;;;;5074036;28;20179;-80
2022/11/23 08:00:14;;;;;;;6.10;4.00;;;;;;;;;;5085738;28;20634;-77
2022/11/23 08:03:19;;;;;;;7.20;4.27;;;;;;;;;;5072370;28;20175;-77
2022/11/23 08:06:23;;;;;;;6.57;4.87;;;;;;;;;;5073187;28;20179;-77
2022/11/23 08:09:27;;;;;;;7.97;5.43;;;;;;;;;;5084364;28;20183;-78
2022/11/23 08:12:31;;;;;;;8.53;6.33;;;;;;;;;;5070061;23;20588;-77
2022/11/23 08:15:35;;;;;;;7.90;5.97;;;;;;;;;;5061915;28;20185;-77
2022/11/23 08:18:39;;;;;;;8.70;5.60;;;;;;;;;;5050865;28;20184;-77
2022/11/23 08:21:44;;;;;;;7.27;5.30;;;;;;;;;;5062047;28;20211;-77
2022/11/23 08:24:49;;;;;;;7.17;5.50;;;;;;;;;;5074369;28;20634;-77
2022/11/23 08:28:01;;;;;;;7.67;5.27;;;;;;;;;;5061814;28;20175;-77
2022/11/23 08:31:07;;;;;;;8.87;4.17;;;;;;;;;;5074441;28;20219;-77
2022/11/23 08:34:12;;;;;;;6.10;3.70;;;;;;;;;;5079213;28;20176;-80
2022/11/23 08:37:17;;;;;;;5.83;3.57;;;;;;;;;;5066430;28;20665;-78
2022/11/23 08:40:21;;;;;;;4.27;3.47;;;;;;;;;;5043802;28;20183;-79
2022/11/23 08:43:25;;;;;;;5.93;3.20;;;;;;;;;;5066529;28;20175;-80
2022/11/23 08:46:30;;;;;;;4.93;3.07;;;;;;;;;;5043615;28;20176;-80
2022/11/23 08:49:34;;;;;;;6.37;3.70;;;;;;;;;;5043345;28;20176;-78
2022/11/23 08:52:38;;;;;;;3.77;2.90;;;;;;;;;;5078928;28;20693;-80
2022/11/23 08:55:42;;;;;;;4.80;3.30;;;;;;;;;;5054739;28;20183;-78
2022/11/23 08:58:46;;;;;;;8.47;3.00;;;;;;;;;;5054515;28;20646;-79
2022/11/23 09:01:51;;;;;;;6.37;3.53;;;;;;;;;;5066334;28;20211;-79
2022/11/23 09:04:55;;;;;;;5.33;3.50;;;;;;;;;;5065356;28;20179;-80
2022/11/23 09:08:00;;;;;;;10.37;4.37;;;;;;;;;;5043769;28;20179;-80
2022/11/23 09:11:06;;;;;;;6.00;4.03;;;;;;;;;;5053934;28;20578;-79
2022/11/23 09:14:10;;;;;;;7.27;3.67;;;;;;;;;;5065698;28;20168;-80
2022/11/23 09:17:14;;;;;;;5.90;3.90;;;;;;;;;;5065319;28;20191;-80
2022/11/23 09:20:18;;;;;;;6.17;3.70;;;;;;;;;;5042137;28;20630;-78
2022/11/23 09:23:23;;;;;;;6.70;3.30;;;;;;;;;;5053162;28;20171;-79
2022/11/23 09:26:27;;;;;;;6.90;3.50;;;;;;;;;;5067232;28;20188;-80
2022/11/23 09:29:31;;;;;;;5.37;3.10;;;;;;;;;;5054821;28;20175;-80
2022/11/23 09:32:35;;;;;;;6.30;2.37;;;;;;;;;;5054109;28;20218;-79
2022/11/23 09:35:40;;;;;;;2.90;2.00;;;;;;;;;;5054524;28;20545;-79
2022/11/23 09:38:43;;;;;;;3.10;2.30;;;;;;;;;;5066357;28;20180;-80
2022/11/23 09:42:09;;;;;;;2.73;2.03;;;;;;;;;;5054973;28;20215;-80
2022/11/23 09:45:22;;;;;;;3.00;2.07;;;;;;;;;;5044284;28;20183;-80
2022/11/23 09:48:48;;;;;;;8.00;2.37;;;;;;;;;;5055107;28;20184;-80
2022/11/23 09:51:55;;;;;;;5.03;2.10;;;;;;;;;;5065109;28;20685;-79
2022/11/23 09:55:04;;;;;;;5.57;3.00;;;;;;;;;;5042667;28;20226;-80
2022/11/23 09:58:15;;;;;;;3.97;2.60;;;;;;;;;;5066034;28;20183;-80
2022/11/23 10:01:19;;;;;;;2.57;2.10;;;;;;;;;;5065636;28;20215;-80
2022/11/23 10:04:23;;;;;;;4.17;2.40;;;;;;;;;;5054361;28;20176;-81
2022/11/23 10:08:05;;;;;;;5.67;2.23;;;;;;;;;;5042672;28;20179;-80
2022/11/23 10:11:09;;;;;;;3.00;2.10;;;;;;;;;;5065850;28;20593;-79
2022/11/23 10:14:22;;;;;;;4.30;1.80;;;;;;;;;;5054079;28;20207;-80
2022/11/23 10:17:49;;;;;;;4.40;1.80;;;;;;;;;;5066214;28;20183;-80
2022/11/23 10:21:23;;;;;;;3.40;1.60;;;;;;;;;;5057715;28;20589;-79
2022/11/23 10:24:33;;;;;;;4.53;2.00;;;;;;;;;;5054942;28;20199;-79
2022/11/23 10:27:37;;;;;;;4.83;2.10;;;;;;;;;;5046548;28;20179;-80
2022/11/23 10:30:41;;;;;;;4.03;1.80;;;;;;;;;;5058037;28;20661;-79
2022/11/23 10:34:13;;;;;;;4.07;1.60;;;;;;;;;;5057327;28;20203;-80
2022/11/23 10:37:17;;;;;;;4.63;1.37;;;;;;;;;;5057056;28;20195;-81
2022/11/23 10:40:25;;;;;;;2.30;1.30;;;;;;;;;;5059311;28;20183;-80
2022/11/23 10:43:40;;;;;;;3.83;1.50;;;;;;;;;;5057887;28;20557;-80
2022/11/23 10:46:44;;;;;;;2.30;1.50;;;;;;;;;;5049245;28;20180;-80
2022/11/23 10:49:57;;;;;;;3.33;1.70;;;;;;;;;;5060199;28;20183;-80
2022/11/23 10:53:20;;;;;;;4.73;2.00;;;;;;;;;;5071666;28;20195;-81
2022/11/23 10:56:25;;;;;;;3.30;1.53;;;;;;;;;;5052696;28;20184;-80
2022/11/23 10:59:37;;;;;;;2.53;1.40;;;;;;;;;;5087284;28;20187;-81
2022/11/23 11:02:44;;;;;;;5.73;1.70;;;;;;;;;;5063660;28;20203;-80
2022/11/23 11:05:49;;;;;;;3.47;1.37;;;;;;;;;;5053416;28;20176;-80
2022/11/23 11:08:56;;;;;;;2.50;1.50;;;;;;;;;;5063790;28;20180;-80
2022/11/23 11:12:01;;;;;;;3.50;1.40;;;;;;;;;;5064881;28;20231;-80
2022/11/23 11:15:08;;;;;;;3.53;1.50;;;;;;;;;;5078045;28;20187;-80
2022/11/23 11:18:17;;;;;;;3.40;1.20;;;;;;;;;;5068205;28;20183;-80
2022/11/23 11:21:33;;;;;;;4.47;1.40;;;;;;;;;;5054990;28;20685;-80
2022/11/23 11:24:45;;;;;;;3.60;1.50;;;;;;;;;;5088307;28;20188;-79
2022/11/23 11:27:51;;;;;;;2.37;1.60;;;;;;;;;;5062400;28;20179;-80
2022/11/23 11:31:13;;;;;;;4.20;1.50;;;;;;;;;;5061945;28;20215;-80
2022/11/23 11:34:24;;;;;;;3.70;1.40;;;;;;;;;;5061190;28;20199;-80
2022/11/23 11:37:56;;;;;;;3.13;1.33;;;;;;;;;;5061502;28;20188;-80
2022/11/23 11:41:06;;;;;;;5.33;2.00;;;;;;;;;;5072443;28;20211;-80
2022/11/23 11:44:20;;;;;;;3.63;1.27;;;;;;;;;;5047895;28;20176;-80
2022/11/23 11:47:30;;;;;;;2.37;0.97;;;;;;;;;;5057123;28;20176;-80
2022/11/23 11:50:46;;;;;;;3.17;1.10;;;;;;;;;;5056645;28;20187;-80
2022/11/23 11:53:57;;;;;;;3.03;1.20;;;;;;;;;;5055920;28;20208;-80
2022/11/23 11:57:16;;;;;;;3.67;1.27;;;;;;;;;;5053124;28;20207;-80
2022/11/23 12:00:21;;;;;;;4.07;1.30;;;;;;;;;;5048484;28;20184;-79
2022/11/23 12:03:42;;;;;;;4.03;1.33;;;;;;;;;;5047385;28;20172;-81
2022/11/23 12:07:12;;;;;;;4.30;1.17;;;;;;;;;;5037912;28;20655;-82
2022/11/23 12:10:28;;;;;;;2.80;1.30;;;;;;;;;;5056841;28;20200;-81
2022/11/23 12:13:39;;;;;;;3.37;1.50;;;;;;;;;;5040337;28;20219;-80
2022/11/23 12:17:08;;;;;;;6.40;1.97;;;;;;;;;;5040958;28;20184;-81
2022/11/23 12:20:20;;;;;;;4.17;1.60;;;;;;;;;;5052489;28;20179;-81
2022/11/23 12:23:34;;;;;;;4.77;1.50;;;;;;;;;;5035798;28;20534;-81
2022/11/23 12:26:41;;;;;;;2.73;1.30;;;;;;;;;;5068334;28;20665;-80
2022/11/23 12:29:52;;;;;;;3.03;1.60;;;;;;;;;;5068969;28;20259;-81
2022/11/23 12:33:14;;;;;;;4.60;1.90;;;;;;;;;;5068835;28;20223;-81
2022/11/23 12:36:47;;;;;;;5.53;1.57;;;;;;;;;;5044932;28;20184;-80
2022/11/23 12:40:13;;;;;;;4.37;1.70;;;;;;;;;;5052479;28;20204;-81
2022/11/23 12:43:23;;;;;;;4.17;1.63;;;;;;;;;;5037704;28;20173;-81
2022/11/23 12:46:52;;;;;;;3.50;1.50;;;;;;;;;;5048449;28;20176;-79
2022/11/23 12:50:28;;;;;;;5.93;1.60;;;;;;;;;;5038022;28;20180;-83
2022/11/23 12:54:08;;;;;;;3.93;1.83;;;;;;;;;;5039547;28;20208;-84
2022/11/23 12:57:32;;;;;;;2.23;1.70;;;;;;;;;;5050504;28;20180;-82
2022/11/23 13:00:42;;;;;;;5.67;1.53;;;;;;;;;;5048349;28;20180;-83
2022/11/23 13:03:49;;;;;;;3.33;1.50;;;;;;;;;;5036376;28;20172;-83
2022/11/23 13:07:00;;;;;;;4.03;1.47;;;;;;;;;;5035870;28;20581;-83
2022/11/23 13:10:11;;;;;;;2.97;1.20;;;;;;;;;;5060682;28;20547;-82
2022/11/23 13:13:34;;;;;;;3.77;1.10;;;;;;;;;;5049402;28;20208;-83
2022/11/23 13:17:17;;;;;;;4.07;1.20;;;;;;;;;;5049685;28;20185;-82
2022/11/23 13:20:37;;;;;;;2.60;1.23;;;;;;;;;;5031821;28;20643;-81
2022/11/23 13:23:41;;;;;;;2.47;1.17;;;;;;;;;;5037191;28;20177;-82
2022/11/23 13:27:14;;;;;;;4.87;1.10;;;;;;;;;;5038812;28;20627;-81
2022/11/23 13:30:29;;;;;;;3.43;1.33;;;;;;;;;;5026713;28;20200;-81
2022/11/23 13:33:37;;;;;;;3.33;1.23;;;;;;;;;;5048655;28;20212;-80
2022/11/23 13:36:42;;;;;;;3.03;1.30;;;;;;;;;;5049640;28;20188;-82
2022/11/23 13:39:49;;;;;;;3.80;1.20;;;;;;;;;;5049774;28;20184;-81
2022/11/23 13:42:58;;;;;;;1.90;1.13;;;;;;;;;;5039029;28;20216;-80
2022/11/23 13:46:09;;;;;;;4.53;1.50;;;;;;;;;;5027390;28;20628;-81
2022/11/23 13:49:44;;;;;;;2.07;1.20;;;;;;;;;;5039313;28;20196;-80
2022/11/23 13:52:50;;;;;;;3.27;1.30;;;;;;;;;;5051126;28;20212;-80
2022/11/23 13:56:16;;;;;;;4.33;1.33;;;;;;;;;;5055442;28;20172;-79
2022/11/23 13:59:23;;;;;;;8.17;1.60;;;;;;;;;;5043666;28;20180;-80
2022/11/23 14:02:29;;;;;;;2.40;1.13;;;;;;;;;;5042653;28;20219;-81
2022/11/23 14:05:48;;;;;;;4.70;1.40;;;;;;;;;;5055453;28;20172;-81
2022/11/23 14:09:11;;;;;;;4.47;1.20;;;;;;;;;;5055352;28;20181;-80
2022/11/23 14:12:36;;;;;;;3.17;1.20;;;;;;;;;;5055403;28;20227;-79
2022/11/23 14:15:45;;;;;;;5.73;1.37;;;;;;;;;;5055739;28;20164;-80
2022/11/23 14:19:09;;;;;;;5.53;1.53;;;;;;;;;;5032686;28;20663;-79
2022/11/23 14:22:35;;;;;;;2.87;1.37;;;;;;;;;;5032058;28;20219;-80
2022/11/23 14:26:10;;;;;;;3.17;1.50;;;;;;;;;;5053444;28;20172;-79
2022/11/23 14:29:26;;;;;;;4.53;1.27;;;;;;;;;;5053691;28;20176;-80
2022/11/23 14:32:50;;;;;;;3.13;1.23;;;;;;;;;;5042536;28;20220;-81
2022/11/23 14:36:09;;;;;;;2.20;1.17;;;;;;;;;;5054254;28;20165;-79
2022/11/23 14:39:47;;;;;;;3.80;1.30;;;;;;;;;;5066170;28;20184;-80
2022/11/23 14:42:56;;;;;;;4.23;1.20;;;;;;;;;;5052823;28;20212;-80
2022/11/23 14:46:02;;;;;;;5.63;1.30;;;;;;;;;;5053106;28;20176;-80
2022/11/23 14:49:13;;;;;;;4.57;1.50;;;;;;;;;;5052793;28;20188;-79
2022/11/23 14:52:23;;;;;;;4.70;1.20;;;;;;;;;;5042245;28;20208;-79
2022/11/23 14:55:28;;;;;;;4.30;1.10;;;;;;;;;;5026400;28;20212;-79
2022/11/23 14:58:33;;;;;;;4.90;1.13;;;;;;;;;;5054171;28;20670;-79
2022/11/23 15:01:39;;;;;;;3.67;1.30;;;;;;;;;;5049783;28;20694;-77
2022/11/23 15:05:04;;;;;;;2.97;1.00;;;;;;;;;;5062680;28;20650;-78
2022/11/23 15:08:26;;;;;;;2.70;0.90;;;;;;;;;;5060477;28;20185;-79
2022/11/23 15:11:32;;;;;;;2.67;1.30;;;;;;;;;;5036525;28;20690;-78
2022/11/23 15:14:42;;;;;;;7.30;1.40;;;;;;;;;;5026114;28;20223;-78
2022/11/23 15:17:54;;;;;;;5.37;1.17;;;;;;;;;;5047702;28;20180;-78
2022/11/23 15:21:02;;;;;;;4.50;1.10;;;;;;;;;;5060200;28;20216;-78
2022/11/23 15:24:20;;;;;;;4.47;1.03;;;;;;;;;;5048381;28;20176;-78
2022/11/23 15:27:28;;;;;;;2.90;1.27;;;;;;;;;;5037038;28;20177;-79
2022/11/23 15:30:33;;;;;;;3.27;0.90;;;;;;;;;;5047174;28;20188;-79
2022/11/23 15:33:37;;;;;;;4.10;1.03;;;;;;;;;;5036318;28;20180;-79
2022/11/23 15:36:43;;;;;;;3.53;1.40;;;;;;;;;;5036430;28;20192;-79
2022/11/23 15:39:47;;;;;;;4.17;1.40;;;;;;;;;;5024723;28;20172;-79
2022/11/23 15:42:51;;;;;;;5.33;1.50;;;;;;;;;;5046443;28;20550;-78
2022/11/23 15:46:01;;;;;;;5.07;1.60;;;;;;;;;;5047618;28;20172;-78
2022/11/23 15:49:05;;;;;;;4.73;1.50;;;;;;;;;;5046785;28;20545;-78
2022/11/23 15:52:13;;;;;;;2.83;1.60;;;;;;;;;;5035454;28;20219;-78
2022/11/23 15:55:22;;;;;;;4.07;1.20;;;;;;;;;;5036330;28;20204;-78
2022/11/23 15:58:27;;;;;;;3.20;1.43;;;;;;;;;;5048548;28;20651;-78
2022/11/23 16:01:31;;;;;;;2.27;1.20;;;;;;;;;;5048533;28;20223;-79
2022/11/23 16:04:41;;;;;;;4.87;1.57;;;;;;;;;;5046191;28;20196;-78
2022/11/23 16:08:00;;;;;;;2.30;1.20;;;;;;;;;;5046442;28;20188;-78
2022/11/23 16:11:04;;;;;;;2.47;1.23;;;;;;;;;;5036853;28;20215;-79
2022/11/23 16:14:26;;;;;;;5.03;1.70;;;;;;;;;;5037062;28;20200;-79
2022/11/23 16:17:30;;;;;;;5.40;1.70;;;;;;;;;;5048345;28;20185;-79
2022/11/23 16:20:34;;;;;;;5.70;1.90;;;;;;;;;;5047625;28;20539;-79
2022/11/23 16:23:47;;;;;;;7.50;1.73;;;;;;;;;;5095180;22;20231;-86
2022/11/23 16:26:52;;;;;;;5.00;1.87;;;;;;;;;;5033900;28;20184;-85
2022/11/23 16:29:56;;;;;;;4.07;1.70;;;;;;;;;;5034379;28;20542;-86
2022/11/23 16:33:01;;;;;;;4.53;1.77;;;;;;;;;;5021434;28;20180;-86
2022/11/23 16:36:05;;;;;;;4.37;2.30;;;;;;;;;;5013466;28;20208;-86
2022/11/23 16:39:10;;;;;;;5.87;2.10;;;;;;;;;;5013065;28;20200;-86
2022/11/23 16:42:15;;;;;;;7.00;2.30;;;;;;;;;;5001536;28;20185;-86
2022/11/23 16:45:20;;;;;;;4.70;2.20;;;;;;;;;;5024042;28;20213;-86
2022/11/23 16:48:26;;;;;;;5.40;2.00;;;;;;;;;;5013123;28;20189;-85
2022/11/23 16:51:31;;;;;;;3.63;1.93;;;;;;;;;;5001209;28;20536;-86
2022/11/23 16:54:35;;;;;;;3.33;2.00;;;;;;;;;;5000980;28;20567;-86
2022/11/23 16:57:41;;;;;;;5.60;2.27;;;;;;;;;;5011945;28;20181;-86
2022/11/23 17:00:47;;;;;;;3.67;2.07;;;;;;;;;;5012944;28;20185;-85
2022/11/23 17:03:52;;;;;;;5.83;2.33;;;;;;;;;;5002065;28;20212;-85
2022/11/23 17:06:56;;;;;;;4.67;1.70;;;;;;;;;;5011217;28;20621;-89
2022/11/23 17:10:01;;;;;;;4.60;2.17;;;;;;;;;;5000161;28;20184;-90
2022/11/23 17:13:10;;;;;;;3.60;2.27;;;;;;;;;;5000211;28;20571;-89
2022/11/23 17:16:16;;;;;;;5.67;2.30;;;;;;;;;;5023081;28;20216;-90
2022/11/23 17:19:21;;;;;;;6.47;1.67;;;;;;;;;;5011078;28;20204;-89
2022/11/23 17:22:25;;;;;;;4.90;2.10;;;;;;;;;;5008888;28;20197;-89
2022/11/23 17:25:31;;;;;;;5.07;1.90;;;;;;;;;;4991629;28;20220;-89
2022/11/23 17:28:35;;;;;;;7.40;2.00;;;;;;;;;;4979961;28;20185;-89
2022/11/23 17:31:42;;;;;;;4.70;1.93;;;;;;;;;;4992647;28;20213;-89
2022/11/23 17:34:46;;;;;;;5.50;2.33;;;;;;;;;;4991322;28;20229;-90
2022/11/23 17:37:50;;;;;;;5.93;2.30;;;;;;;;;;5002925;28;20185;-90
2022/11/23 17:40:54;;;;;;;7.73;2.37;;;;;;;;;;5002969;28;20177;-90
2022/11/23 17:43:58;;;;;;;5.53;2.37;;;;;;;;;;4991905;28;20213;-90
2022/11/23 17:47:03;;;;;;;5.07;2.20;;;;;;;;;;4991600;28;20181;-89
2022/11/23 17:50:16;;;;;;;5.70;2.30;;;;;;;;;;5014005;28;20181;-89
2022/11/23 17:53:20;;;;;;;6.57;2.10;;;;;;;;;;5007192;28;20201;-90
2022/11/23 17:56:25;;;;;;;5.60;2.10;;;;;;;;;;5023342;28;20209;-89
2022/11/23 17:59:29;;;;;;;5.60;2.53;;;;;;;;;;5011210;28;20180;-89
2022/11/23 18:02:33;;;;;;;5.87;2.33;;;;;;;;;;4992724;28;20632;-88
2022/11/23 18:05:37;;;;;;;5.40;2.20;;;;;;;;;;4992556;28;20177;-90
2022/11/23 18:08:43;;;;;;;6.40;2.60;;;;;;;;;;5003174;28;20186;-89
2022/11/23 18:11:46;;;;;;;7.20;2.97;;;;;;;;;;4992352;28;20182;-89
2022/11/23 18:14:51;;;;;;;5.10;3.00;;;;;;;;;;5003318;28;20229;-89
2022/11/23 18:17:55;;;;;;;6.53;3.40;;;;;;;;;;4991679;28;20198;-89
2022/11/23 18:20:59;;;;;;;5.97;3.00;;;;;;;;;;4980560;28;20197;-88
2022/11/23 18:24:04;;;;;;;5.97;3.10;;;;;;;;;;4990998;28;20225;-89
2022/11/23 18:27:08;;;;;;;6.23;2.60;;;;;;;;;;4991970;28;20170;-90
2022/11/23 18:30:15;;;;;;;5.80;3.10;;;;;;;;;;4991724;28;20181;-88
2022/11/23 18:33:20;;;;;;;7.60;3.23;;;;;;;;;;4980664;28;20178;-88
2022/11/23 18:36:24;;;;;;;4.13;2.40;;;;;;;;;;4994439;28;20217;-88
2022/11/23 18:39:29;;;;;;;6.13;2.80;;;;;;;;;;5012493;28;20628;-89
2022/11/23 18:42:33;;;;;;;5.57;2.90;;;;;;;;;;5005416;28;20201;-89
2022/11/23 18:45:37;;;;;;;6.80;3.40;;;;;;;;;;4994173;28;20170;-89
2022/11/23 18:48:41;;;;;;;8.63;4.00;;;;;;;;;;5005567;28;20177;-88
2022/11/23 18:51:46;;;;;;;5.60;3.20;;;;;;;;;;4983384;28;20185;-89
2022/11/23 18:54:50;;;;;;;8.47;3.90;;;;;;;;;;5011746;28;20240;-90